sensor_id;sensor_type;location;lat;lon;timestamp;P1;durP1;ratioP1;P2;durP2;ratioP2
6053;SDS011;3055;50.886;14.814;2023-11-19T00:01:02;6.70;;;6.00;;
6053;SDS011;3055;50.886;14.814;2023-11-19T00:03:30;7.07;;;6.37;;
6053;SDS011;3055;50.886;14.814;2023-11-19T00:06:00;7.27;;;6.57;;
6053;SDS011;3055;50.886;14.814;2023-11-19T00:08:27;6.97;;;6.27;;
6053;SDS011;3055;50.886;14.814;2023-11-19T00:10:54;7.17;;;6.43;;
6053;SDS011;3055;50.886;14.814;2023-11-19T00:13:21;8.33;;;7.53;;
6053;SDS011;3055;50.886;14.814;2023-11-19T00:15:51;7.07;;;6.13;;
6053;SDS011;3055;50.886;14.814;2023-11-19T00:18:18;8.47;;;6.63;;
6053;SDS011;3055;50.886;14.814;2023-11-19T00:20:45;7.87;;;7.07;;
6053;SDS011;3055;50.886;14.814;2023-11-19T00:23:14;7.83;;;6.57;;
6053;SDS011;3055;50.886;14.814;2023-11-19T00:25:41;8.10;;;7.30;;
6053;SDS011;3055;50.886;14.814;2023-11-19T00:28:08;7.67;;;6.87;;
6053;SDS011;3055;50.886;14.814;2023-11-19T00:30:35;8.53;;;7.07;;
6053;SDS011;3055;50.886;14.814;2023-11-19T00:33:02;7.53;;;6.83;;
6053;SDS011;3055;50.886;14.814;2023-11-19T00:35:29;8.63;;;7.43;;
6053;SDS011;3055;50.886;14.814;2023-11-19T00:37:57;8.70;;;7.80;;
6053;SDS011;3055;50.886;14.814;2023-11-19T00:40:25;7.37;;;6.63;;
6053;SDS011;3055;50.886;14.814;2023-11-19T00:42:52;8.93;;;7.30;;
6053;SDS011;3055;50.886;14.814;2023-11-19T00:45:19;8.83;;;7.30;;
6053;SDS011;3055;50.886;14.814;2023-11-19T00:47:46;8.50;;;7.67;;
6053;SDS011;3055;50.886;14.814;2023-11-19T00:50:13;9.03;;;7.40;;
6053;SDS011;3055;50.886;14.814;2023-11-19T00:52:40;9.33;;;7.80;;
6053;SDS011;3055;50.886;14.814;2023-11-19T00:55:07;8.97;;;7.70;;
6053;SDS011;3055;50.886;14.814;2023-11-19T00:57:38;9.23;;;8.23;;
6053;SDS011;3055;50.886;14.814;2023-11-19T01:00:07;9.30;;;7.53;;
6053;SDS011;3055;50.886;14.814;2023-11-19T01:02:43;9.30;;;8.03;;
6053;SDS011;3055;50.886;14.814;2023-11-19T01:05:10;9.20;;;8.30;;
6053;SDS011;3055;50.886;14.814;2023-11-19T01:07:39;9.80;;;8.37;;
6053;SDS011;3055;50.886;14.814;2023-11-19T01:10:06;8.93;;;8.03;;
6053;SDS011;3055;50.886;14.814;2023-11-19T01:12:35;10.77;;;8.93;;
6053;SDS011;3055;50.886;14.814;2023-11-19T01:15:04;9.80;;;8.23;;
6053;SDS011;3055;50.886;14.814;2023-11-19T01:17:32;11.27;;;8.63;;
6053;SDS011;3055;50.886;14.814;2023-11-19T01:19:59;9.67;;;8.67;;
6053;SDS011;3055;50.886;14.814;2023-11-19T01:22:26;10.00;;;8.93;;
6053;SDS011;3055;50.886;14.814;2023-11-19T01:24:53;11.50;;;9.30;;
6053;SDS011;3055;50.886;14.814;2023-11-19T01:27:20;10.83;;;9.30;;
6053;SDS011;3055;50.886;14.814;2023-11-19T01:29:47;9.00;;;8.10;;
6053;SDS011;3055;50.886;14.814;2023-11-19T01:32:15;10.37;;;9.10;;
6053;SDS011;3055;50.886;14.814;2023-11-19T01:34:42;9.60;;;8.60;;
6053;SDS011;3055;50.886;14.814;2023-11-19T01:37:10;10.20;;;8.80;;
6053;SDS011;3055;50.886;14.814;2023-11-19T01:39:39;11.30;;;8.93;;
6053;SDS011;3055;50.886;14.814;2023-11-19T01:42:06;13.60;;;9.73;;
6053;SDS011;3055;50.886;14.814;2023-11-19T01:44:33;10.80;;;9.70;;
6053;SDS011;3055;50.886;14.814;2023-11-19T01:47:00;10.70;;;9.00;;
6053;SDS011;3055;50.886;14.814;2023-11-19T01:49:30;10.10;;;9.00;;
6053;SDS011;3055;50.886;14.814;2023-11-19T01:51:58;11.77;;;10.03;;
6053;SDS011;3055;50.886;14.814;2023-11-19T01:54:25;10.73;;;9.63;;
6053;SDS011;3055;50.886;14.814;2023-11-19T01:56:53;11.27;;;9.00;;
6053;SDS011;3055;50.886;14.814;2023-11-19T01:59:23;12.77;;;9.93;;
6053;SDS011;3055;50.886;14.814;2023-11-19T02:01:52;12.27;;;9.60;;
6053;SDS011;3055;50.886;14.814;2023-11-19T02:04:20;10.83;;;9.63;;
6053;SDS011;3055;50.886;14.814;2023-11-19T02:06:49;11.93;;;10.03;;
6053;SDS011;3055;50.886;14.814;2023-11-19T02:09:20;10.87;;;9.77;;
6053;SDS011;3055;50.886;14.814;2023-11-19T02:11:47;12.47;;;9.73;;
6053;SDS011;3055;50.886;14.814;2023-11-19T02:14:16;13.00;;;9.73;;
6053;SDS011;3055;50.886;14.814;2023-11-19T02:16:45;11.30;;;10.13;;
6053;SDS011;3055;50.886;14.814;2023-11-19T02:19:12;10.50;;;9.10;;
6053;SDS011;3055;50.886;14.814;2023-11-19T02:21:39;10.87;;;9.53;;
6053;SDS011;3055;50.886;14.814;2023-11-19T02:24:08;11.73;;;9.87;;
6053;SDS011;3055;50.886;14.814;2023-11-19T02:26:39;10.43;;;9.43;;
6053;SDS011;3055;50.886;14.814;2023-11-19T02:29:13;11.53;;;9.57;;
6053;SDS011;3055;50.886;14.814;2023-11-19T02:31:40;10.63;;;9.53;;
6053;SDS011;3055;50.886;14.814;2023-11-19T02:34:07;11.57;;;9.63;;
6053;SDS011;3055;50.886;14.814;2023-11-19T02:36:37;11.20;;;10.07;;
6053;SDS011;3055;50.886;14.814;2023-11-19T02:39:06;11.13;;;9.47;;
6053;SDS011;3055;50.886;14.814;2023-11-19T02:41:37;12.77;;;9.73;;
6053;SDS011;3055;50.886;14.814;2023-11-19T02:44:05;11.90;;;9.93;;
6053;SDS011;3055;50.886;14.814;2023-11-19T02:46:34;10.77;;;9.43;;
6053;SDS011;3055;50.886;14.814;2023-11-19T02:49:01;8.17;;;6.70;;
6053;SDS011;3055;50.886;14.814;2023-11-19T02:51:27;10.40;;;9.17;;
6053;SDS011;3055;50.886;14.814;2023-11-19T02:53:55;10.00;;;8.90;;
6053;SDS011;3055;50.886;14.814;2023-11-19T02:56:23;12.37;;;10.60;;
6053;SDS011;3055;50.886;14.814;2023-11-19T02:58:51;13.97;;;11.20;;
6053;SDS011;3055;50.886;14.814;2023-11-19T03:01:22;10.87;;;9.63;;
6053;SDS011;3055;50.886;14.814;2023-11-19T03:03:56;11.87;;;9.73;;
6053;SDS011;3055;50.886;14.814;2023-11-19T03:06:23;11.20;;;10.00;;
6053;SDS011;3055;50.886;14.814;2023-11-19T03:08:51;11.43;;;10.23;;
6053;SDS011;3055;50.886;14.814;2023-11-19T03:11:18;11.10;;;9.87;;
6053;SDS011;3055;50.886;14.814;2023-11-19T03:13:45;13.83;;;10.83;;
6053;SDS011;3055;50.886;14.814;2023-11-19T03:16:13;12.33;;;10.80;;
6053;SDS011;3055;50.886;14.814;2023-11-19T03:18:40;13.90;;;10.97;;
6053;SDS011;3055;50.886;14.814;2023-11-19T03:21:08;13.87;;;11.70;;
6053;SDS011;3055;50.886;14.814;2023-11-19T03:23:35;14.30;;;11.30;;
6053;SDS011;3055;50.886;14.814;2023-11-19T03:26:05;14.20;;;11.43;;
6053;SDS011;3055;50.886;14.814;2023-11-19T03:28:33;11.53;;;10.30;;
6053;SDS011;3055;50.886;14.814;2023-11-19T03:31:00;12.60;;;11.23;;
6053;SDS011;3055;50.886;14.814;2023-11-19T03:33:27;12.20;;;10.93;;
6053;SDS011;3055;50.886;14.814;2023-11-19T03:35:54;12.13;;;10.83;;
6053;SDS011;3055;50.886;14.814;2023-11-19T03:38:23;12.83;;;10.60;;
6053;SDS011;3055;50.886;14.814;2023-11-19T03:40:50;11.77;;;10.10;;
6053;SDS011;3055;50.886;14.814;2023-11-19T03:43:17;11.63;;;9.97;;
6053;SDS011;3055;50.886;14.814;2023-11-19T03:45:45;12.60;;;9.80;;
6053;SDS011;3055;50.886;14.814;2023-11-19T03:48:13;12.77;;;10.63;;
6053;SDS011;3055;50.886;14.814;2023-11-19T03:50:41;10.50;;;9.43;;
6053;SDS011;3055;50.886;14.814;2023-11-19T03:53:08;12.90;;;10.30;;
6053;SDS011;3055;50.886;14.814;2023-11-19T03:55:36;11.27;;;9.20;;
6053;SDS011;3055;50.886;14.814;2023-11-19T03:58:03;12.53;;;10.83;;
6053;SDS011;3055;50.886;14.814;2023-11-19T04:00:30;12.90;;;10.57;;
6053;SDS011;3055;50.886;14.814;2023-11-19T04:02:58;11.10;;;8.77;;
6053;SDS011;3055;50.886;14.814;2023-11-19T04:05:25;11.13;;;9.70;;
6053;SDS011;3055;50.886;14.814;2023-11-19T04:07:52;11.27;;;9.50;;
6053;SDS011;3055;50.886;14.814;2023-11-19T04:10:19;10.37;;;9.20;;
6053;SDS011;3055;50.886;14.814;2023-11-19T04:12:49;10.37;;;9.33;;
6053;SDS011;3055;50.886;14.814;2023-11-19T04:15:16;10.70;;;9.03;;
6053;SDS011;3055;50.886;14.814;2023-11-19T04:17:43;9.77;;;8.43;;
6053;SDS011;3055;50.886;14.814;2023-11-19T04:20:10;10.87;;;9.40;;
6053;SDS011;3055;50.886;14.814;2023-11-19T04:22:38;10.60;;;9.47;;
6053;SDS011;3055;50.886;14.814;2023-11-19T04:25:06;9.70;;;8.70;;
6053;SDS011;3055;50.886;14.814;2023-11-19T04:27:33;10.53;;;9.43;;
6053;SDS011;3055;50.886;14.814;2023-11-19T04:30:02;10.80;;;9.30;;
6053;SDS011;3055;50.886;14.814;2023-11-19T04:32:30;9.57;;;8.50;;
6053;SDS011;3055;50.886;14.814;2023-11-19T04:34:57;11.83;;;10.20;;
6053;SDS011;3055;50.886;14.814;2023-11-19T04:37:24;12.50;;;9.90;;
6053;SDS011;3055;50.886;14.814;2023-11-19T04:39:51;11.20;;;9.83;;
6053;SDS011;3055;50.886;14.814;2023-11-19T04:42:18;10.83;;;9.73;;
6053;SDS011;3055;50.886;14.814;2023-11-19T04:44:45;9.63;;;8.73;;
6053;SDS011;3055;50.886;14.814;2023-11-19T04:47:13;11.13;;;9.90;;
6053;SDS011;3055;50.886;14.814;2023-11-19T04:49:41;11.33;;;10.00;;
6053;SDS011;3055;50.886;14.814;2023-11-19T04:52:09;11.20;;;10.00;;
6053;SDS011;3055;50.886;14.814;2023-11-19T04:54:40;11.50;;;10.27;;
6053;SDS011;3055;50.886;14.814;2023-11-19T04:57:08;12.07;;;10.63;;
6053;SDS011;3055;50.886;14.814;2023-11-19T04:59:36;12.47;;;10.23;;
6053;SDS011;3055;50.886;14.814;2023-11-19T05:02:03;12.13;;;10.83;;
6053;SDS011;3055;50.886;14.814;2023-11-19T05:04:32;12.63;;;11.00;;
6053;SDS011;3055;50.886;14.814;2023-11-19T05:06:59;12.60;;;11.30;;
6053;SDS011;3055;50.886;14.814;2023-11-19T05:09:26;12.27;;;11.07;;
6053;SDS011;3055;50.886;14.814;2023-11-19T05:11:53;12.10;;;10.87;;
6053;SDS011;3055;50.886;14.814;2023-11-19T05:14:20;11.30;;;9.97;;
6053;SDS011;3055;50.886;14.814;2023-11-19T05:16:49;12.53;;;10.53;;
6053;SDS011;3055;50.886;14.814;2023-11-19T05:19:16;12.07;;;10.10;;
6053;SDS011;3055;50.886;14.814;2023-11-19T05:21:44;13.07;;;10.80;;
6053;SDS011;3055;50.886;14.814;2023-11-19T05:24:12;10.87;;;9.77;;
6053;SDS011;3055;50.886;14.814;2023-11-19T05:26:39;10.17;;;9.07;;
6053;SDS011;3055;50.886;14.814;2023-11-19T05:29:06;10.13;;;9.13;;
6053;SDS011;3055;50.886;14.814;2023-11-19T05:31:33;9.90;;;9.00;;
6053;SDS011;3055;50.886;14.814;2023-11-19T05:34:00;10.40;;;9.30;;
6053;SDS011;3055;50.886;14.814;2023-11-19T05:36:27;9.83;;;8.83;;
6053;SDS011;3055;50.886;14.814;2023-11-19T05:38:56;10.67;;;8.43;;
6053;SDS011;3055;50.886;14.814;2023-11-19T05:41:23;9.40;;;8.27;;
6053;SDS011;3055;50.886;14.814;2023-11-19T05:43:50;9.93;;;8.90;;
6053;SDS011;3055;50.886;14.814;2023-11-19T05:46:17;9.87;;;8.87;;
6053;SDS011;3055;50.886;14.814;2023-11-19T05:48:44;8.77;;;7.97;;
6053;SDS011;3055;50.886;14.814;2023-11-19T05:51:12;11.97;;;9.30;;
6053;SDS011;3055;50.886;14.814;2023-11-19T05:53:40;10.90;;;9.40;;
6053;SDS011;3055;50.886;14.814;2023-11-19T05:56:08;10.00;;;8.37;;
6053;SDS011;3055;50.886;14.814;2023-11-19T05:58:35;10.00;;;9.00;;
6053;SDS011;3055;50.886;14.814;2023-11-19T06:01:04;9.93;;;8.93;;
6053;SDS011;3055;50.886;14.814;2023-11-19T06:03:32;9.40;;;8.50;;
6053;SDS011;3055;50.886;14.814;2023-11-19T06:05:59;9.80;;;8.90;;
6053;SDS011;3055;50.886;14.814;2023-11-19T06:08:26;10.13;;;8.57;;
6053;SDS011;3055;50.886;14.814;2023-11-19T06:10:54;9.30;;;8.30;;
6053;SDS011;3055;50.886;14.814;2023-11-19T06:13:23;10.67;;;9.57;;
6053;SDS011;3055;50.886;14.814;2023-11-19T06:15:50;9.63;;;6.87;;
6053;SDS011;3055;50.886;14.814;2023-11-19T06:18:17;10.60;;;8.27;;
6053;SDS011;3055;50.886;14.814;2023-11-19T06:20:45;9.20;;;8.30;;
6053;SDS011;3055;50.886;14.814;2023-11-19T06:23:12;8.43;;;7.63;;
6053;SDS011;3055;50.886;14.814;2023-11-19T06:25:39;9.97;;;8.97;;
6053;SDS011;3055;50.886;14.814;2023-11-19T06:28:06;8.87;;;8.00;;
6053;SDS011;3055;50.886;14.814;2023-11-19T06:30:35;9.13;;;8.17;;
6053;SDS011;3055;50.886;14.814;2023-11-19T06:33:02;8.93;;;7.87;;
6053;SDS011;3055;50.886;14.814;2023-11-19T06:35:29;8.30;;;7.43;;
6053;SDS011;3055;50.886;14.814;2023-11-19T06:38:01;8.37;;;7.10;;
6053;SDS011;3055;50.886;14.814;2023-11-19T06:40:29;8.47;;;7.57;;
6053;SDS011;3055;50.886;14.814;2023-11-19T06:42:56;7.90;;;7.13;;
6053;SDS011;3055;50.886;14.814;2023-11-19T06:45:23;8.17;;;6.63;;
6053;SDS011;3055;50.886;14.814;2023-11-19T06:47:52;7.63;;;6.93;;
6053;SDS011;3055;50.886;14.814;2023-11-19T06:50:19;7.43;;;6.73;;
6053;SDS011;3055;50.886;14.814;2023-11-19T06:52:46;7.07;;;6.37;;
6053;SDS011;3055;50.886;14.814;2023-11-19T06:55:13;6.27;;;5.67;;
6053;SDS011;3055;50.886;14.814;2023-11-19T06:57:41;7.23;;;5.83;;
6053;SDS011;3055;50.886;14.814;2023-11-19T07:00:09;7.00;;;6.07;;
6053;SDS011;3055;50.886;14.814;2023-11-19T07:02:36;5.87;;;5.30;;
6053;SDS011;3055;50.886;14.814;2023-11-19T07:05:06;5.47;;;4.97;;
6053;SDS011;3055;50.886;14.814;2023-11-19T07:07:33;6.10;;;4.93;;
6053;SDS011;3055;50.886;14.814;2023-11-19T07:10:01;6.00;;;5.40;;
6053;SDS011;3055;50.886;14.814;2023-11-19T07:12:29;5.27;;;4.77;;
6053;SDS011;3055;50.886;14.814;2023-11-19T07:14:56;5.77;;;4.93;;
6053;SDS011;3055;50.886;14.814;2023-11-19T07:17:23;5.53;;;5.00;;
6053;SDS011;3055;50.886;14.814;2023-11-19T07:19:50;5.70;;;5.20;;
6053;SDS011;3055;50.886;14.814;2023-11-19T07:22:19;5.30;;;4.80;;
6053;SDS011;3055;50.886;14.814;2023-11-19T07:24:46;5.10;;;4.60;;
6053;SDS011;3055;50.886;14.814;2023-11-19T07:27:13;4.77;;;4.30;;
6053;SDS011;3055;50.886;14.814;2023-11-19T07:29:40;4.63;;;4.23;;
6053;SDS011;3055;50.886;14.814;2023-11-19T07:32:09;4.13;;;3.83;;
6053;SDS011;3055;50.886;14.814;2023-11-19T07:34:38;4.97;;;4.37;;
6053;SDS011;3055;50.886;14.814;2023-11-19T07:37:06;4.17;;;3.80;;
6053;SDS011;3055;50.886;14.814;2023-11-19T07:39:34;4.30;;;3.90;;
6053;SDS011;3055;50.886;14.814;2023-11-19T07:42:03;4.53;;;4.13;;
6053;SDS011;3055;50.886;14.814;2023-11-19T07:44:30;4.20;;;3.90;;
6053;SDS011;3055;50.886;14.814;2023-11-19T07:46:57;4.63;;;4.20;;
6053;SDS011;3055;50.886;14.814;2023-11-19T07:49:24;3.23;;;3.03;;
6053;SDS011;3055;50.886;14.814;2023-11-19T07:51:51;4.50;;;4.10;;
6053;SDS011;3055;50.886;14.814;2023-11-19T07:54:18;4.60;;;4.20;;
6053;SDS011;3055;50.886;14.814;2023-11-19T07:56:48;4.03;;;3.63;;
6053;SDS011;3055;50.886;14.814;2023-11-19T07:59:15;3.70;;;3.40;;
6053;SDS011;3055;50.886;14.814;2023-11-19T08:01:42;4.07;;;3.67;;
6053;SDS011;3055;50.886;14.814;2023-11-19T08:04:09;4.40;;;3.80;;
6053;SDS011;3055;50.886;14.814;2023-11-19T08:06:36;4.37;;;3.97;;
6053;SDS011;3055;50.886;14.814;2023-11-19T08:09:03;4.53;;;4.13;;
6053;SDS011;3055;50.886;14.814;2023-11-19T08:11:31;4.53;;;4.17;;
6053;SDS011;3055;50.886;14.814;2023-11-19T08:14:00;4.33;;;3.93;;
6053;SDS011;3055;50.886;14.814;2023-11-19T08:16:27;3.80;;;3.50;;
6053;SDS011;3055;50.886;14.814;2023-11-19T08:18:54;5.33;;;4.77;;
6053;SDS011;3055;50.886;14.814;2023-11-19T08:21:23;4.40;;;4.00;;
6053;SDS011;3055;50.886;14.814;2023-11-19T08:23:52;5.07;;;4.57;;
6053;SDS011;3055;50.886;14.814;2023-11-19T08:26:19;4.20;;;3.80;;
6053;SDS011;3055;50.886;14.814;2023-11-19T08:28:46;4.47;;;4.07;;
6053;SDS011;3055;50.886;14.814;2023-11-19T08:31:14;4.90;;;4.40;;
6053;SDS011;3055;50.886;14.814;2023-11-19T08:33:41;4.50;;;4.10;;
6053;SDS011;3055;50.886;14.814;2023-11-19T08:36:08;5.77;;;4.13;;
6053;SDS011;3055;50.886;14.814;2023-11-19T08:38:41;4.33;;;3.93;;
6053;SDS011;3055;50.886;14.814;2023-11-19T08:41:08;5.90;;;4.53;;
6053;SDS011;3055;50.886;14.814;2023-11-19T08:43:35;3.70;;;3.40;;
6053;SDS011;3055;50.886;14.814;2023-11-19T08:46:03;4.40;;;3.90;;
6053;SDS011;3055;50.886;14.814;2023-11-19T08:48:36;4.40;;;4.00;;
6053;SDS011;3055;50.886;14.814;2023-11-19T08:51:04;4.60;;;4.20;;
6053;SDS011;3055;50.886;14.814;2023-11-19T08:53:31;4.30;;;3.90;;
6053;SDS011;3055;50.886;14.814;2023-11-19T08:55:58;4.33;;;3.93;;
6053;SDS011;3055;50.886;14.814;2023-11-19T08:58:25;4.80;;;4.40;;
6053;SDS011;3055;50.886;14.814;2023-11-19T09:00:52;5.07;;;4.57;;
6053;SDS011;3055;50.886;14.814;2023-11-19T09:03:19;5.07;;;4.67;;
6053;SDS011;3055;50.886;14.814;2023-11-19T09:05:48;5.20;;;4.53;;
6053;SDS011;3055;50.886;14.814;2023-11-19T09:08:15;4.63;;;4.23;;
6053;SDS011;3055;50.886;14.814;2023-11-19T09:10:42;4.30;;;3.90;;
6053;SDS011;3055;50.886;14.814;2023-11-19T09:13:09;4.47;;;4.07;;
6053;SDS011;3055;50.886;14.814;2023-11-19T09:15:36;4.63;;;4.23;;
6053;SDS011;3055;50.886;14.814;2023-11-19T09:18:03;4.27;;;3.90;;
6053;SDS011;3055;50.886;14.814;2023-11-19T09:20:30;4.23;;;3.87;;
6053;SDS011;3055;50.886;14.814;2023-11-19T09:23:04;4.33;;;3.93;;
6053;SDS011;3055;50.886;14.814;2023-11-19T09:25:31;4.13;;;3.83;;
6053;SDS011;3055;50.886;14.814;2023-11-19T09:27:59;4.47;;;4.07;;
6053;SDS011;3055;50.886;14.814;2023-11-19T09:30:26;3.83;;;3.53;;
6053;SDS011;3055;50.886;14.814;2023-11-19T09:32:53;3.60;;;3.30;;
6053;SDS011;3055;50.886;14.814;2023-11-19T09:35:20;3.50;;;3.20;;
6053;SDS011;3055;50.886;14.814;2023-11-19T09:37:47;3.87;;;3.47;;
6053;SDS011;3055;50.886;14.814;2023-11-19T09:40:15;4.13;;;3.70;;
6053;SDS011;3055;50.886;14.814;2023-11-19T09:42:44;5.57;;;4.50;;
6053;SDS011;3055;50.886;14.814;2023-11-19T09:45:12;3.10;;;2.80;;
6053;SDS011;3055;50.886;14.814;2023-11-19T09:47:43;3.10;;;2.83;;
6053;SDS011;3055;50.886;14.814;2023-11-19T09:50:12;3.47;;;3.17;;
6053;SDS011;3055;50.886;14.814;2023-11-19T09:52:42;3.10;;;2.87;;
6053;SDS011;3055;50.886;14.814;2023-11-19T09:55:10;3.20;;;3.00;;
6053;SDS011;3055;50.886;14.814;2023-11-19T09:57:39;3.37;;;3.07;;
6053;SDS011;3055;50.886;14.814;2023-11-19T10:00:09;3.57;;;3.27;;
6053;SDS011;3055;50.886;14.814;2023-11-19T10:02:38;3.73;;;3.40;;
6053;SDS011;3055;50.886;14.814;2023-11-19T10:05:07;3.60;;;3.30;;
6053;SDS011;3055;50.886;14.814;2023-11-19T10:07:35;3.40;;;3.20;;
6053;SDS011;3055;50.886;14.814;2023-11-19T10:10:03;3.30;;;3.00;;
6053;SDS011;3055;50.886;14.814;2023-11-19T10:12:30;3.50;;;3.20;;
6053;SDS011;3055;50.886;14.814;2023-11-19T10:14:59;3.60;;;3.30;;
6053;SDS011;3055;50.886;14.814;2023-11-19T10:17:30;3.53;;;3.23;;
6053;SDS011;3055;50.886;14.814;2023-11-19T10:19:59;3.27;;;3.00;;
6053;SDS011;3055;50.886;14.814;2023-11-19T10:22:27;3.40;;;3.10;;
6053;SDS011;3055;50.886;14.814;2023-11-19T10:24:55;3.03;;;2.83;;
6053;SDS011;3055;50.886;14.814;2023-11-19T10:27:23;4.77;;;4.20;;
6053;SDS011;3055;50.886;14.814;2023-11-19T10:29:51;4.20;;;3.87;;
6053;SDS011;3055;50.886;14.814;2023-11-19T10:32:19;5.83;;;5.10;;
6053;SDS011;3055;50.886;14.814;2023-11-19T10:34:46;7.10;;;5.23;;
6053;SDS011;3055;50.886;14.814;2023-11-19T10:37:27;3.50;;;3.20;;
6053;SDS011;3055;50.886;14.814;2023-11-19T10:39:56;3.20;;;2.90;;
6053;SDS011;3055;50.886;14.814;2023-11-19T10:42:24;3.33;;;3.13;;
6053;SDS011;3055;50.886;14.814;2023-11-19T10:44:51;3.30;;;3.00;;
6053;SDS011;3055;50.886;14.814;2023-11-19T10:47:19;3.20;;;3.00;;
6053;SDS011;3055;50.886;14.814;2023-11-19T10:49:48;3.77;;;3.47;;
6053;SDS011;3055;50.886;14.814;2023-11-19T10:52:17;2.77;;;2.50;;
6053;SDS011;3055;50.886;14.814;2023-11-19T10:54:46;2.77;;;2.57;;
6053;SDS011;3055;50.886;14.814;2023-11-19T10:57:19;3.07;;;2.77;;
6053;SDS011;3055;50.886;14.814;2023-11-19T10:59:49;2.60;;;2.50;;
6053;SDS011;3055;50.886;14.814;2023-11-19T11:02:21;2.90;;;2.70;;
6053;SDS011;3055;50.886;14.814;2023-11-19T11:04:50;3.10;;;2.80;;
6053;SDS011;3055;50.886;14.814;2023-11-19T11:07:19;3.47;;;3.17;;
6053;SDS011;3055;50.886;14.814;2023-11-19T11:09:51;4.23;;;3.83;;
6053;SDS011;3055;50.886;14.814;2023-11-19T11:12:19;2.60;;;2.40;;
6053;SDS011;3055;50.886;14.814;2023-11-19T11:14:50;2.83;;;2.63;;
6053;SDS011;3055;50.886;14.814;2023-11-19T11:17:20;3.23;;;2.93;;
6053;SDS011;3055;50.886;14.814;2023-11-19T11:19:52;3.00;;;2.80;;
6053;SDS011;3055;50.886;14.814;2023-11-19T11:22:19;3.37;;;3.10;;
6053;SDS011;3055;50.886;14.814;2023-11-19T11:30:35;4.57;;;4.27;;
6053;SDS011;3055;50.886;14.814;2023-11-19T11:33:19;3.03;;;2.83;;
6053;SDS011;3055;50.886;14.814;2023-11-19T11:36:01;3.23;;;3.03;;
6053;SDS011;3055;50.886;14.814;2023-11-19T11:38:37;4.00;;;3.70;;
6053;SDS011;3055;50.886;14.814;2023-11-19T11:41:16;3.80;;;3.37;;
6053;SDS011;3055;50.886;14.814;2023-11-19T11:43:46;3.30;;;3.10;;
6053;SDS011;3055;50.886;14.814;2023-11-19T11:49:27;3.57;;;3.27;;
6053;SDS011;3055;50.886;14.814;2023-11-19T11:52:02;3.93;;;3.53;;
6053;SDS011;3055;50.886;14.814;2023-11-19T11:54:29;3.50;;;3.20;;
6053;SDS011;3055;50.886;14.814;2023-11-19T11:57:06;3.63;;;3.33;;
6053;SDS011;3055;50.886;14.814;2023-11-19T11:59:47;3.80;;;3.20;;
6053;SDS011;3055;50.886;14.814;2023-11-19T12:02:15;5.10;;;4.47;;
6053;SDS011;3055;50.886;14.814;2023-11-19T12:04:47;3.80;;;3.50;;
6053;SDS011;3055;50.886;14.814;2023-11-19T12:07:16;3.73;;;3.43;;
6053;SDS011;3055;50.886;14.814;2023-11-19T12:09:47;3.90;;;3.60;;
6053;SDS011;3055;50.886;14.814;2023-11-19T12:12:19;4.00;;;3.60;;
6053;SDS011;3055;50.886;14.814;2023-11-19T12:15:04;4.83;;;3.83;;
6053;SDS011;3055;50.886;14.814;2023-11-19T12:17:40;4.33;;;4.00;;
6053;SDS011;3055;50.886;14.814;2023-11-19T12:20:11;4.50;;;4.10;;
6053;SDS011;3055;50.886;14.814;2023-11-19T12:22:38;4.93;;;4.40;;
6053;SDS011;3055;50.886;14.814;2023-11-19T12:25:07;4.63;;;4.23;;
6053;SDS011;3055;50.886;14.814;2023-11-19T12:27:35;4.23;;;3.93;;
6053;SDS011;3055;50.886;14.814;2023-11-19T12:30:02;4.77;;;4.37;;
6053;SDS011;3055;50.886;14.814;2023-11-19T12:32:37;4.13;;;3.77;;
6053;SDS011;3055;50.886;14.814;2023-11-19T12:35:07;4.97;;;4.57;;
6053;SDS011;3055;50.886;14.814;2023-11-19T12:37:44;5.03;;;4.53;;
6053;SDS011;3055;50.886;14.814;2023-11-19T12:40:13;5.47;;;4.97;;
6053;SDS011;3055;50.886;14.814;2023-11-19T12:42:42;5.07;;;4.67;;
6053;SDS011;3055;50.886;14.814;2023-11-19T12:45:09;5.03;;;4.57;;
6053;SDS011;3055;50.886;14.814;2023-11-19T12:47:37;5.27;;;4.67;;
6053;SDS011;3055;50.886;14.814;2023-11-19T12:50:06;6.07;;;5.03;;
6053;SDS011;3055;50.886;14.814;2023-11-19T12:52:34;6.53;;;4.57;;
6053;SDS011;3055;50.886;14.814;2023-11-19T12:55:04;5.53;;;4.80;;
6053;SDS011;3055;50.886;14.814;2023-11-19T12:57:38;5.10;;;4.63;;
6053;SDS011;3055;50.886;14.814;2023-11-19T13:00:06;5.43;;;4.90;;
6053;SDS011;3055;50.886;14.814;2023-11-19T13:02:45;4.80;;;4.40;;
6053;SDS011;3055;50.886;14.814;2023-11-19T13:05:21;4.73;;;4.33;;
6053;SDS011;3055;50.886;14.814;2023-11-19T13:07:57;6.70;;;4.93;;
6053;SDS011;3055;50.886;14.814;2023-11-19T13:10:27;5.23;;;4.83;;
6053;SDS011;3055;50.886;14.814;2023-11-19T13:13:01;5.67;;;5.07;;
6053;SDS011;3055;50.886;14.814;2023-11-19T13:15:29;5.47;;;4.97;;
6053;SDS011;3055;50.886;14.814;2023-11-19T13:17:56;5.13;;;4.70;;
6053;SDS011;3055;50.886;14.814;2023-11-19T13:20:23;5.00;;;4.50;;
6053;SDS011;3055;50.886;14.814;2023-11-19T13:22:59;6.70;;;5.40;;
6053;SDS011;3055;50.886;14.814;2023-11-19T13:25:30;6.87;;;4.73;;
6053;SDS011;3055;50.886;14.814;2023-11-19T13:27:58;5.67;;;5.00;;
6053;SDS011;3055;50.886;14.814;2023-11-19T13:30:25;5.07;;;4.47;;
6053;SDS011;3055;50.886;14.814;2023-11-19T13:32:53;4.43;;;4.03;;
6053;SDS011;3055;50.886;14.814;2023-11-19T13:35:21;4.77;;;4.37;;
6053;SDS011;3055;50.886;14.814;2023-11-19T13:37:49;4.33;;;3.97;;
6053;SDS011;3055;50.886;14.814;2023-11-19T13:40:16;4.93;;;4.43;;
6053;SDS011;3055;50.886;14.814;2023-11-19T13:42:46;4.63;;;4.10;;
6053;SDS011;3055;50.886;14.814;2023-11-19T13:45:13;5.20;;;4.70;;
6053;SDS011;3055;50.886;14.814;2023-11-19T13:47:41;4.83;;;4.40;;
6053;SDS011;3055;50.886;14.814;2023-11-19T13:50:09;7.03;;;5.30;;
6053;SDS011;3055;50.886;14.814;2023-11-19T13:52:37;7.07;;;5.60;;
6053;SDS011;3055;50.886;14.814;2023-11-19T13:55:06;22.07;;;20.33;;
6053;SDS011;3055;50.886;14.814;2023-11-19T13:57:34;7.67;;;7.07;;
6053;SDS011;3055;50.886;14.814;2023-11-19T14:00:02;6.80;;;6.07;;
6053;SDS011;3055;50.886;14.814;2023-11-19T14:02:31;6.03;;;5.53;;
6053;SDS011;3055;50.886;14.814;2023-11-19T14:04:58;7.57;;;5.97;;
6053;SDS011;3055;50.886;14.814;2023-11-19T14:07:26;6.87;;;6.03;;
6053;SDS011;3055;50.886;14.814;2023-11-19T14:09:53;7.77;;;6.37;;
6053;SDS011;3055;50.886;14.814;2023-11-19T14:12:20;6.73;;;6.03;;
6053;SDS011;3055;50.886;14.814;2023-11-19T14:14:47;5.80;;;5.30;;
6053;SDS011;3055;50.886;14.814;2023-11-19T14:17:16;6.40;;;5.80;;
6053;SDS011;3055;50.886;14.814;2023-11-19T14:19:43;7.47;;;6.40;;
6053;SDS011;3055;50.886;14.814;2023-11-19T14:22:10;8.57;;;6.77;;
6053;SDS011;3055;50.886;14.814;2023-11-19T14:24:37;7.77;;;6.97;;
6053;SDS011;3055;50.886;14.814;2023-11-19T14:27:05;7.47;;;6.67;;
6053;SDS011;3055;50.886;14.814;2023-11-19T14:29:32;7.47;;;6.53;;
6053;SDS011;3055;50.886;14.814;2023-11-19T14:32:00;11.03;;;6.50;;
6053;SDS011;3055;50.886;14.814;2023-11-19T14:34:29;7.50;;;6.53;;
6053;SDS011;3055;50.886;14.814;2023-11-19T14:36:56;9.23;;;7.70;;
6053;SDS011;3055;50.886;14.814;2023-11-19T14:39:24;8.03;;;6.90;;
6053;SDS011;3055;50.886;14.814;2023-11-19T14:41:51;10.03;;;8.47;;
6053;SDS011;3055;50.886;14.814;2023-11-19T14:44:22;9.30;;;7.73;;
6053;SDS011;3055;50.886;14.814;2023-11-19T14:46:49;10.43;;;8.30;;
6053;SDS011;3055;50.886;14.814;2023-11-19T14:49:16;10.20;;;8.93;;
6053;SDS011;3055;50.886;14.814;2023-11-19T14:51:45;9.63;;;8.10;;
6053;SDS011;3055;50.886;14.814;2023-11-19T14:54:12;11.77;;;8.80;;
6053;SDS011;3055;50.886;14.814;2023-11-19T14:56:41;9.70;;;8.47;;
6053;SDS011;3055;50.886;14.814;2023-11-19T14:59:08;12.17;;;8.70;;
6053;SDS011;3055;50.886;14.814;2023-11-19T15:01:35;12.00;;;9.97;;
6053;SDS011;3055;50.886;14.814;2023-11-19T15:04:02;12.73;;;10.03;;
6053;SDS011;3055;50.886;14.814;2023-11-19T15:06:29;12.87;;;9.57;;
6053;SDS011;3055;50.886;14.814;2023-11-19T15:09:00;12.67;;;9.27;;
6053;SDS011;3055;50.886;14.814;2023-11-19T15:11:27;12.60;;;8.63;;